Time;durP1;ratioP1;P1;durP2;ratioP2;P2;SDS_P1;SDS_P2;PMS_P1;PMS_P2;Temp;Humidity;BMP_temperature;BMP_pressure;BME280_temperature;BME280_humidity;BME280_pressure;Samples;Min_cycle;Max_cycle;Signal;HPM_P1;HPM_P2
2022/08/24 00:01:07;;;;;;;194.00;184.18;;;;;;;20.33;57.96;96835.47;5072304;28;20189;-68
2022/08/24 00:03:34;;;;;;;184.23;174.98;;;;;;;20.41;57.91;96843.88;5061047;28;20182;-67
2022/08/24 00:06:00;;;;;;;191.02;181.30;;;;;;;20.30;57.91;96837.88;5049645;28;20188;-68
2022/08/24 00:08:26;;;;;;;199.25;189.30;;;;;;;20.37;58.00;96834.91;5072214;28;20186;-68
2022/08/24 00:10:51;;;;;;;171.55;162.65;;;;;;;20.33;57.74;96840.00;5071510;28;20185;-67
2022/08/24 00:13:17;;;;;;;155.68;147.65;;;;;;;20.37;57.64;96835.69;5072093;28;20227;-68
2022/08/24 00:15:43;;;;;;;161.32;153.10;;;;;;;20.31;57.78;96840.28;5048945;28;20320;-68
2022/08/24 00:18:09;;;;;;;176.93;168.02;;;;;;;20.23;58.27;96840.09;5070900;28;20180;-68
2022/08/24 00:20:36;;;;;;;144.63;136.70;;;;;;;20.31;57.68;96842.97;5072433;28;20219;-68
2022/08/24 00:23:02;;;;;;;135.85;128.40;;;;;;;20.26;57.67;96840.34;5072065;28;20181;-68
2022/08/24 00:25:27;;;;;;;140.57;133.13;;;;;;;20.24;57.76;96836.34;5062145;28;20192;-68
2022/08/24 00:27:52;;;;;;;141.05;133.65;;;;;;;20.23;58.02;96834.78;5058711;28;20196;-68
2022/08/24 00:30:19;;;;;;;147.40;139.73;;;;;;;20.20;58.04;96838.81;5068802;28;20181;-68
2022/08/24 00:32:46;;;;;;;153.65;145.63;;;;;;;20.21;58.04;96842.28;5036702;28;20177;-67
2022/08/24 00:35:13;;;;;;;172.05;163.27;;;;;;;20.16;58.27;96837.00;5064367;28;20292;-67
2022/08/24 00:37:39;;;;;;;160.77;152.57;;;;;;;20.13;58.03;96833.03;5060703;28;20186;-66
2022/08/24 00:40:12;;;;;;;161.45;153.13;;;;;;;20.13;58.08;96834.91;5052726;28;20216;-66
2022/08/24 00:42:39;;;;;;;135.52;128.32;;;;;;;20.24;57.27;96839.03;5062934;28;20260;-67
2022/08/24 00:45:08;;;;;;;120.43;113.88;;;;;;;20.14;57.15;96831.97;5064869;28;20186;-67
2022/08/24 00:47:41;;;;;;;126.40;119.55;;;;;;;20.22;56.66;96835.88;5052287;28;20219;-67
2022/08/24 00:50:13;;;;;;;132.38;125.22;;;;;;;20.19;56.36;96836.44;5052433;28;20184;-67
2022/08/24 00:52:42;;;;;;;137.27;129.82;;;;;;;20.20;56.11;96832.69;5052501;28;20621;-67
2022/08/24 00:55:14;;;;;;;140.38;132.75;;;;;;;20.18;55.88;96834.84;5058868;28;20185;-68
2022/08/24 00:57:43;;;;;;;152.32;144.00;;;;;;;20.18;56.18;96840.97;5069015;28;20208;-68
2022/08/24 01:00:23;;;;;;;155.00;146.55;;;;;;;20.16;56.39;96837.81;5052136;28;20656;-67
2022/08/24 01:02:53;;;;;;;155.10;146.82;;;;;;;20.13;56.90;96829.59;5063309;28;20212;-67
2022/08/24 01:05:18;;;;;;;144.68;136.90;;;;;;;19.93;58.09;96834.09;5063596;28;20206;-67
2022/08/24 01:07:47;;;;;;;144.07;136.32;;;;;;;19.91;58.21;96827.47;5052965;28;20218;-66
2022/08/24 01:10:16;;;;;;;176.50;167.63;;;;;;;19.80;58.84;96836.66;5062439;28;20185;-66
2022/08/24 01:12:44;;;;;;;153.85;146.10;;;;;;;19.75;59.48;96837.50;5059814;28;20326;-67
2022/08/24 01:15:11;;;;;;;148.07;140.38;;;;;;;19.50;60.42;96833.25;5060789;28;20653;-67
2022/08/24 01:20:22;;;;;;;150.18;142.63;;;;;;;19.38;61.04;96837.34;5070939;28;20228;-66
2022/08/24 01:23:12;;;;;;;138.70;131.23;;;;;;;19.44;60.76;96838.88;5056018;28;20204;-66
2022/08/24 01:25:40;;;;;;;121.45;114.72;;;;;;;19.31;61.59;96835.00;5056445;28;20235;-66
2022/08/24 01:28:12;;;;;;;127.32;120.38;;;;;;;19.13;62.00;96832.25;5055903;28;20225;-66
2022/08/24 01:30:37;;;;;;;110.75;104.65;;;;;;;19.21;61.95;96836.97;5055911;28;20221;-67
2022/08/24 01:33:06;;;;;;;91.63;86.55;;;;;;;19.21;62.21;96837.78;5071972;28;20668;-66
2022/08/24 01:35:33;;;;;;;93.65;88.20;;;;;;;19.11;62.95;96846.59;5062137;28;20181;-66
2022/08/24 01:38:03;;;;;;;108.68;102.43;;;;;;;19.05;63.46;96841.63;5055820;28;20186;-66
2022/08/24 01:40:35;;;;;;;187.25;176.52;;;;;;;18.91;64.21;96846.78;5055463;28;20186;-66
2022/08/24 01:43:04;;;;;;;203.93;192.38;;;;;;;18.83;65.05;96843.94;5055393;28;20186;-67
2022/08/24 01:45:30;;;;;;;97.18;91.45;;;;;;;18.74;65.93;96848.25;5068943;28;20185;-66
2022/08/24 01:47:57;;;;;;;62.72;58.95;;;;;;;18.71;66.32;96846.16;5073425;28;20188;-66
2022/08/24 01:50:23;;;;;;;62.65;58.95;;;;;;;18.83;65.92;96844.75;5075111;28;20194;-66
2022/08/24 01:52:51;;;;;;;66.40;62.63;;;;;;;18.69;66.42;96849.06;5074516;28;20181;-66
2022/08/24 01:55:17;;;;;;;80.75;75.70;;;;;;;18.77;66.24;96850.38;5061649;28;20186;-66
2022/08/24 01:57:42;;;;;;;107.20;101.35;;;;;;;18.67;66.69;96851.19;5055004;28;20232;-66
2022/08/24 02:00:13;;;;;;;155.35;147.10;;;;;;;18.58;67.12;96850.22;5057671;28;20471;-66
2022/08/24 02:02:40;;;;;;;154.80;146.32;;;;;;;18.62;67.30;96843.28;5074492;28;20184;-66
2022/08/24 02:05:06;;;;;;;134.48;127.03;;;;;;;18.53;68.02;96847.56;5072672;28;20197;-66
2022/08/24 02:07:31;;;;;;;117.28;110.95;;;;;;;18.45;68.55;96856.09;5074909;28;20185;-67
2022/08/24 02:09:57;;;;;;;89.75;84.75;;;;;;;18.48;68.85;96853.69;5074073;28;20691;-66
2022/08/24 02:12:23;;;;;;;89.47;84.50;;;;;;;18.53;69.25;96850.22;5056372;28;20177;-66
2022/08/24 02:14:49;;;;;;;123.35;116.60;;;;;;;18.58;69.26;96850.22;5060599;28;20202;-66
2022/08/24 02:17:14;;;;;;;124.97;118.00;;;;;;;18.38;69.70;96853.78;5073616;28;20273;-66
2022/08/24 02:19:40;;;;;;;113.28;106.93;;;;;;;18.48;69.49;96848.41;5073328;28;20235;-66
2022/08/24 02:22:06;;;;;;;98.80;93.23;;;;;;;18.43;69.39;96850.28;5074185;28;20652;-66
2022/08/24 02:24:31;;;;;;;76.70;72.43;;;;;;;18.41;69.59;96858.53;5061513;28;20232;-66
2022/08/24 02:26:57;;;;;;;83.00;78.30;;;;;;;18.47;69.25;96853.97;5062391;28;20181;-67
2022/08/24 02:29:23;;;;;;;84.50;79.35;;;;;;;18.23;70.43;96856.47;5074293;28;20554;-66
2022/08/24 02:31:49;;;;;;;77.10;72.40;;;;;;;18.10;71.24;96854.44;5066860;28;20287;-66
2022/08/24 02:34:15;;;;;;;95.13;89.17;;;;;;;18.13;71.20;96846.72;5065667;28;20196;-66
2022/08/24 02:36:40;;;;;;;92.85;87.30;;;;;;;18.20;70.93;96857.84;5073891;28;20181;-67
2022/08/24 02:39:07;;;;;;;108.10;101.57;;;;;;;18.25;70.76;96863.13;5072013;28;20189;-66
2022/08/24 02:41:33;;;;;;;126.37;118.57;;;;;;;18.12;71.19;96862.91;5073611;28;20280;-66
2022/08/24 02:43:58;;;;;;;109.80;103.27;;;;;;;17.92;71.84;96858.50;5063504;28;20638;-66
2022/08/24 02:46:27;;;;;;;103.50;97.50;;;;;;;17.96;71.65;96854.22;5054358;28;20186;-66
2022/08/24 02:48:53;;;;;;;112.50;105.67;;;;;;;18.06;71.34;96848.06;5054138;28;20201;-66
2022/08/24 02:51:25;;;;;;;112.90;106.23;;;;;;;18.01;71.67;96845.44;5063675;28;20239;-66
2022/08/24 02:53:50;;;;;;;108.20;101.63;;;;;;;17.82;72.57;96846.06;5063680;28;20284;-66
2022/08/24 02:56:17;;;;;;;111.70;105.03;;;;;;;17.81;72.82;96846.34;5074105;28;20530;-66
2022/08/24 02:58:44;;;;;;;106.83;100.67;;;;;;;17.74;73.14;96838.66;5073493;28;20181;-66
2022/08/24 03:01:11;;;;;;;103.37;97.17;;;;;;;17.73;73.28;96844.22;5072291;28;20505;-66
2022/08/24 03:03:37;;;;;;;106.40;100.40;;;;;;;17.62;73.60;96851.41;5055294;28;20717;-66
2022/08/24 03:06:03;;;;;;;110.57;104.33;;;;;;;17.60;74.13;96852.78;5058087;28;20180;-66
2022/08/24 03:08:29;;;;;;;107.43;101.43;;;;;;;17.46;74.47;96857.78;5073350;28;20246;-67
2022/08/24 03:10:54;;;;;;;98.93;93.38;;;;;;;17.70;72.75;96853.53;5073100;28;20177;-66
2022/08/24 03:13:19;;;;;;;102.67;96.93;;;;;;;17.97;71.61;96842.56;5062962;28;20208;-66
2022/08/24 03:15:45;;;;;;;102.30;96.37;;;;;;;17.85;72.23;96847.38;5064741;28;20216;-66
2022/08/24 03:18:11;;;;;;;107.53;101.43;;;;;;;17.75;73.12;96848.22;5072298;28;20205;-67
2022/08/24 03:20:37;;;;;;;108.17;101.33;;;;;;;17.69;73.43;96838.69;5071345;28;20207;-66
2022/08/24 03:23:04;;;;;;;113.73;106.83;;;;;;;17.67;73.42;96843.44;5071358;28;20205;-67
2022/08/24 03:25:29;;;;;;;118.00;111.23;;;;;;;17.68;73.71;96838.94;5072836;28;20173;-66
2022/08/24 03:27:55;;;;;;;121.23;114.37;;;;;;;17.59;74.07;96843.19;5073259;28;20556;-66
2022/08/24 03:30:21;;;;;;;125.40;118.23;;;;;;;17.69;73.69;96845.84;5072822;28;20200;-67
2022/08/24 03:32:47;;;;;;;129.13;121.33;;;;;;;17.56;73.97;96847.16;5065074;28;20182;-66
2022/08/24 03:35:13;;;;;;;127.30;120.07;;;;;;;17.45;74.78;96835.78;5053366;28;20185;-67
2022/08/24 03:37:39;;;;;;;129.17;121.83;;;;;;;17.44;74.89;96844.03;5063929;28;20259;-66
2022/08/24 03:40:06;;;;;;;128.70;121.40;;;;;;;17.42;75.13;96835.53;5072878;28;20193;-66
2022/08/24 03:42:32;;;;;;;124.03;117.17;;;;;;;17.48;74.99;96841.63;5071880;28;20279;-66
2022/08/24 03:44:57;;;;;;;123.30;116.50;;;;;;;17.45;74.83;96841.09;5072488;28;20181;-67
2022/08/24 03:47:22;;;;;;;117.17;110.47;;;;;;;17.56;74.51;96831.25;5071315;28;20193;-66
2022/08/24 03:49:48;;;;;;;103.87;97.97;;;;;;;17.45;74.81;96833.16;5053339;28;20190;-66
2022/08/24 03:52:13;;;;;;;100.23;94.40;;;;;;;17.38;75.59;96842.44;5050481;28;20197;-66
2022/08/24 03:54:39;;;;;;;92.93;87.60;;;;;;;17.44;75.13;96839.50;5071536;28;20263;-66
2022/08/24 03:57:04;;;;;;;85.00;80.13;;;;;;;17.45;75.38;96841.09;5072571;28;20660;-66
2022/08/24 03:59:30;;;;;;;89.13;84.10;;;;;;;17.42;75.59;96844.28;5054773;28;20185;-66
2022/08/24 04:01:56;;;;;;;96.40;90.70;;;;;;;17.39;75.62;96841.38;5053007;28;20196;-66
2022/08/24 04:04:22;;;;;;;94.20;88.47;;;;;;;17.18;77.24;96845.13;5058668;28;20510;-66
2022/08/24 04:06:48;;;;;;;110.73;103.73;;;;;;;17.12;78.00;96844.31;5071900;28;20181;-67
2022/08/24 04:09:14;;;;;;;118.80;111.23;;;;;;;17.13;78.08;96843.28;5056968;28;20185;-66
2022/08/24 04:11:42;;;;;;;132.90;124.63;;;;;;;16.96;78.99;96850.69;5052668;28;20186;-66
2022/08/24 04:14:08;;;;;;;132.80;124.30;;;;;;;17.09;77.94;96850.16;5056362;28;20199;-66
2022/08/24 04:16:33;;;;;;;133.37;125.03;;;;;;;17.13;77.90;96850.41;5071194;28;20553;-66
2022/08/24 04:18:59;;;;;;;144.80;135.87;;;;;;;17.16;77.34;96845.41;5068956;28;20225;-66
2022/08/24 04:21:28;;;;;;;147.70;138.67;;;;;;;17.16;77.17;96844.59;5066930;28;20606;-66
2022/08/24 04:23:54;;;;;;;151.20;142.37;;;;;;;17.35;76.06;96848.28;5052890;28;20189;-67
2022/08/24 04:26:22;;;;;;;139.63;131.27;;;;;;;17.19;76.78;96852.00;5070153;28;20192;-66
2022/08/24 04:28:47;;;;;;;139.83;131.00;;;;;;;17.16;76.82;96850.69;5057918;28;20254;-66
2022/08/24 04:31:14;;;;;;;124.53;117.03;;;;;;;17.01;77.73;96853.34;5039777;28;20182;-66
2022/08/24 04:33:40;;;;;;;121.23;114.07;;;;;;;16.95;77.71;96859.69;5054055;28;20193;-66
2022/08/24 04:36:08;;;;;;;117.27;110.23;;;;;;;17.12;77.06;96851.47;5071514;28;20587;-66
2022/08/24 04:38:35;;;;;;;114.47;107.53;;;;;;;17.01;77.46;96858.63;5060579;28;20182;-66
2022/08/24 04:41:05;;;;;;;108.17;101.67;;;;;;;17.12;77.32;96862.06;5052202;28;20185;-66
2022/08/24 04:43:30;;;;;;;106.87;100.27;;;;;;;17.07;77.15;96860.22;5052322;28;20180;-69
2022/08/24 04:45:56;;;;;;;149.17;137.47;;;;;;;17.13;77.02;96861.00;5071989;28;20181;-66
2022/08/24 04:48:21;;;;;;;90.77;85.13;;;;;;;17.08;77.08;96863.66;5057393;28;20174;-66
2022/08/24 04:50:48;;;;;;;85.30;80.27;;;;;;;17.07;77.13;96870.81;5051908;28;20189;-66
2022/08/24 04:53:14;;;;;;;93.93;88.13;;;;;;;17.18;76.43;96867.09;5051815;28;20685;-67
2022/08/24 04:55:45;;;;;;;69.50;65.47;;;;;;;17.18;76.08;96866.31;5052177;28;20244;-66
2022/08/24 04:58:13;;;;;;;58.67;55.33;;;;;;;17.40;74.86;96872.09;5064354;28;20165;-66
2022/08/24 05:00:39;;;;;;;82.67;77.97;;;;;;;17.49;74.09;96869.72;5069712;28;20228;-66
2022/08/24 05:03:05;;;;;;;68.93;65.07;;;;;;;17.72;72.60;96875.25;5055012;28;20270;-67
2022/08/24 05:05:31;;;;;;;114.50;108.13;;;;;;;18.10;71.08;96879.13;5051798;28;20186;-67
2022/08/24 05:07:57;;;;;;;111.90;106.25;;;;;;;18.41;69.86;96873.66;5064727;28;20177;-66
2022/08/24 05:10:22;;;;;;;115.20;109.30;;;;;;;18.88;67.13;96879.22;5069890;28;20190;-66
2022/08/24 05:12:47;;;;;;;56.17;52.88;;;;;;;19.06;65.97;96875.09;5069323;28;20188;-70
2022/08/24 05:15:13;;;;;;;22.02;20.65;;;;;;;19.25;64.51;96880.53;5068397;28;20517;-66
2022/08/24 05:17:40;;;;;;;18.75;17.10;;;;;;;19.55;63.80;96879.50;5060768;28;20197;-67
2022/08/24 05:20:08;;;;;;;23.50;22.13;;;;;;;19.76;62.52;96883.50;5051317;28;20221;-67
2022/08/24 05:22:33;;;;;;;36.55;34.38;;;;;;;19.98;62.05;96878.47;5051494;28;20190;-67
2022/08/24 05:24:59;;;;;;;33.97;32.08;;;;;;;20.31;61.04;96882.06;5051631;28;20637;-67
2022/08/24 05:27:24;;;;;;;34.15;31.85;;;;;;;20.29;60.37;96882.34;5051679;28;20205;-66
2022/08/24 05:29:53;;;;;;;69.47;65.45;;;;;;;20.66;59.31;96886.16;5052221;28;20186;-66
2022/08/24 05:32:19;;;;;;;123.80;116.65;;;;;;;20.64;59.29;96880.31;5052386;28;20186;-66
2022/08/24 05:34:44;;;;;;;69.00;64.90;;;;;;;20.66;58.63;96881.63;5051611;28;20251;-67
2022/08/24 05:37:10;;;;;;;34.58;32.60;;;;;;;21.24;57.11;96883.16;5051722;28;20263;-66
2022/08/24 05:39:35;;;;;;;41.25;38.78;;;;;;;21.55;57.50;96878.88;5051862;28;20626;-68
2022/08/24 05:42:01;;;;;;;36.53;34.42;;;;;;;21.33;58.75;96878.75;5051512;28;20528;-68
2022/08/24 05:44:29;;;;;;;27.73;25.85;;;;;;;21.64;58.45;96879.78;5034004;28;20649;-68
2022/08/24 05:46:56;;;;;;;32.28;30.35;;;;;;;21.72;58.35;96884.44;5051356;28;20273;-68
2022/08/24 05:49:22;;;;;;;27.70;25.92;;;;;;;21.67;58.73;96892.53;5051685;28;20190;-66
2022/08/24 05:51:48;;;;;;;34.90;32.88;;;;;;;21.84;57.15;96881.28;5051638;28;20227;-67
2022/08/24 05:54:13;;;;;;;59.47;56.05;;;;;;;21.63;57.03;96885.41;5051491;28;20681;-66
2022/08/24 05:56:39;;;;;;;107.90;101.82;;;;;;;21.61;57.44;96898.25;5051227;28;20488;-67
2022/08/24 05:59:05;;;;;;;143.50;135.50;;;;;;;22.01;56.05;96894.88;5051607;28;20220;-67
2022/08/24 06:01:32;;;;;;;102.53;96.80;;;;;;;22.08;55.46;96891.78;5051370;28;20631;-67
2022/08/24 06:03:58;;;;;;;82.38;77.78;;;;;;;22.27;54.78;96898.63;5051205;28;20647;-67
2022/08/24 06:06:25;;;;;;;59.40;55.92;;;;;;;22.39;53.66;96893.56;5033272;28;20611;-67
2022/08/24 06:08:53;;;;;;;48.63;45.78;;;;;;;22.33;53.79;96905.44;5052085;28;20178;-67
2022/08/24 06:11:25;;;;;;;33.70;31.58;;;;;;;22.73;53.14;96906.47;5054675;28;20268;-68
2022/08/24 06:13:53;;;;;;;55.22;52.00;;;;;;;22.86;52.34;96909.41;5053640;28;20212;-68
2022/08/24 06:16:20;;;;;;;47.40;44.42;;;;;;;22.94;52.22;96912.16;5054619;28;20583;-68
2022/08/24 06:18:45;;;;;;;32.60;30.58;;;;;;;23.07;52.60;96908.63;5054073;28;20350;-67
2022/08/24 06:21:14;;;;;;;121.40;114.88;;;;;;;22.64;57.56;96907.44;5036785;28;20188;-67
2022/08/24 06:23:40;;;;;;;298.70;282.27;;;;;;;22.40;59.31;96902.38;5054686;28;20236;-68
2022/08/24 06:28:51;;;;;;;40.53;37.83;;;;;;;22.07;60.52;96903.56;5032778;28;20181;-67
2022/08/24 06:31:17;;;;;;;38.67;36.25;;;;;;;22.32;59.90;96909.19;5057536;28;20182;-67
2022/08/24 06:33:42;;;;;;;30.98;28.48;;;;;;;22.42;60.17;96908.19;5036518;28;20229;-67
2022/08/24 06:36:08;;;;;;;33.95;31.65;;;;;;;22.64;59.29;96899.44;5036459;28;20193;-67
2022/08/24 06:38:33;;;;;;;36.53;34.30;;;;;;;22.70;59.47;96904.38;5054282;28;20674;-67
2022/08/24 06:40:59;;;;;;;33.28;31.02;;;;;;;22.38;60.14;96904.53;5054142;28;20213;-67
2022/08/24 06:43:24;;;;;;;33.30;31.38;;;;;;;22.78;58.92;96906.38;5036219;28;20216;-67
2022/08/24 06:45:51;;;;;;;33.47;31.25;;;;;;;22.45;60.45;96907.59;5054366;28;20684;-66
2022/08/24 06:48:17;;;;;;;36.15;33.55;;;;;;;22.97;58.56;96905.41;5053899;28;20186;-67
2022/08/24 06:50:42;;;;;;;34.28;32.03;;;;;;;22.87;57.99;96917.13;5054517;28;20698;-66
2022/08/24 06:53:08;;;;;;;40.08;37.53;;;;;;;23.06;57.57;96915.09;5053980;28;20186;-67
2022/08/24 06:55:34;;;;;;;62.45;58.63;;;;;;;23.21;56.98;96911.25;5054135;28;20190;-66
2022/08/24 06:58:01;;;;;;;180.40;170.40;;;;;;;23.19;56.66;96914.22;5053690;28;20232;-67
2022/08/24 07:00:27;;;;;;;234.82;221.93;;;;;;;23.63;55.17;96916.09;5054205;28;20185;-67
2022/08/24 07:02:52;;;;;;;242.63;229.15;;;;;;;23.54;55.56;96920.63;5053974;28;20190;-67
2022/08/24 07:05:17;;;;;;;115.18;108.88;;;;;;;23.52;53.41;96917.44;5053259;28;20258;-68
2022/08/24 07:07:43;;;;;;;90.32;85.20;;;;;;;23.32;54.64;96925.16;5053807;28;20697;-67
2022/08/24 07:10:09;;;;;;;73.40;69.13;;;;;;;23.38;53.04;96927.41;5053853;28;20193;-67
2022/08/24 07:12:35;;;;;;;93.07;87.68;;;;;;;23.38;53.92;96930.09;5052074;28;20626;-66
2022/08/24 07:15:02;;;;;;;86.78;81.43;;;;;;;23.60;53.15;96932.00;5053096;28;20205;-66
2022/08/24 07:17:28;;;;;;;56.17;52.95;;;;;;;23.84;51.93;96931.66;5053932;28;20278;-66
2022/08/24 07:19:54;;;;;;;68.93;65.00;;;;;;;23.89;49.39;96931.50;5052311;28;20364;-67
2022/08/24 07:22:19;;;;;;;57.90;54.55;;;;;;;24.13;49.46;96929.22;5053519;28;20238;-66
2022/08/24 07:24:45;;;;;;;90.47;85.45;;;;;;;24.12;48.96;96929.56;5053570;28;20192;-67
2022/08/24 07:27:11;;;;;;;107.90;102.13;;;;;;;23.78;50.31;96938.22;5053468;28;20182;-66
2022/08/24 07:29:38;;;;;;;266.98;252.30;;;;;;;24.34;48.27;96937.53;5053810;28;20178;-67
2022/08/24 07:32:04;;;;;;;97.00;91.75;;;;;;;24.53;49.10;96942.63;5052810;28;20277;-66
2022/08/24 07:34:29;;;;;;;70.18;66.30;;;;;;;24.24;51.66;96938.59;5053445;28;20641;-67
2022/08/24 07:36:55;;;;;;;53.90;50.85;;;;;;;23.41;54.71;96956.22;5053480;28;20580;-67
2022/08/24 07:39:20;;;;;;;43.08;40.58;;;;;;;23.04;56.31;96946.69;5035398;28;20178;-67
2022/08/24 07:41:46;;;;;;;57.35;53.70;;;;;;;23.50;54.58;96948.31;5053794;28;20217;-67
2022/08/24 07:44:11;;;;;;;35.75;33.58;;;;;;;22.80;55.88;96956.81;5035148;28;20186;-67
2022/08/24 07:46:38;;;;;;;60.10;56.60;;;;;;;23.26;54.12;96951.25;5052874;28;20641;-66
2022/08/24 07:49:06;;;;;;;69.70;65.35;;;;;;;22.72;54.45;96955.69;5053091;28;20263;-67
2022/08/24 07:51:31;;;;;;;64.13;60.42;;;;;;;22.24;54.97;96955.28;5050381;28;20178;-66
2022/08/24 07:53:57;;;;;;;79.88;75.20;;;;;;;22.93;53.97;96958.69;5052771;28;20570;-67
2022/08/24 07:56:22;;;;;;;55.97;52.90;;;;;;;22.47;54.49;96952.69;5052968;28;20240;-66
2022/08/24 07:58:48;;;;;;;195.23;184.20;;;;;;;23.36;48.67;96955.56;5053114;28;20242;-66
2022/08/24 08:01:13;;;;;;;130.77;122.82;;;;;;;23.80;46.87;96957.44;5052404;28;20182;-67
2022/08/24 08:03:38;;;;;;;77.32;72.97;;;;;;;23.11;48.40;96959.63;5052540;28;20630;-67
2022/08/24 08:06:06;;;;;;;218.63;207.75;;;;;;;23.75;45.22;96960.25;5052423;28;20634;-67
2022/08/24 08:08:35;;;;;;;190.18;180.57;;;;;;;23.93;45.42;96954.69;5052401;28;20689;-66
2022/08/24 08:11:02;;;;;;;205.15;194.80;;;;;;;23.92;46.32;96960.34;5051923;28;20738;-67
2022/08/24 08:13:29;;;;;;;126.43;120.05;;;;;;;23.88;45.25;96959.38;5034028;28;20566;-67
2022/08/24 08:15:55;;;;;;;95.75;90.72;;;;;;;24.29;44.76;96953.75;5052460;28;20212;-67
2022/08/24 08:18:21;;;;;;;165.63;157.30;;;;;;;24.48;45.65;96962.31;5053865;28;20563;-65
2022/08/24 08:20:47;;;;;;;67.18;63.80;;;;;;;24.10;45.38;96962.00;5054211;28;20185;-65
2022/08/24 08:25:56;;;;;;;81.22;77.07;;;;;;;24.00;46.42;96960.41;5052783;28;20224;-65
2022/08/24 08:28:24;;;;;;;68.90;65.35;;;;;;;24.44;45.22;96956.81;5052665;28;20626;-65
2022/08/24 08:30:51;;;;;;;41.45;39.15;;;;;;;24.35;44.63;96960.56;5070152;28;20653;-65
2022/08/24 08:33:16;;;;;;;37.63;35.33;;;;;;;24.05;44.77;96956.78;5065484;28;20682;-65
2022/08/24 08:35:43;;;;;;;103.45;98.15;;;;;;;24.21;44.60;96952.63;5052424;28;20630;-65
2022/08/24 08:38:09;;;;;;;35.55;33.55;;;;;;;24.19;45.17;96949.47;5052829;28;20732;-66
2022/08/24 08:40:43;;;;;;;192.13;181.40;;;;;;;24.13;44.28;96952.56;5026136;28;20580;-65
2022/08/24 08:43:28;;;;;;;202.15;191.05;;;;;;;24.65;43.59;96951.63;5065624;28;20185;-65
2022/08/24 08:46:27;;;;;;;408.55;387.95;;;;;;;24.34;43.44;96948.25;5056813;28;20186;-65
2022/08/24 08:48:59;;;;;;;228.35;216.38;;;;;;;24.89;42.93;96950.44;5041625;28;20240;-65
2022/08/24 08:51:50;;;;;;;369.70;350.40;;;;;;;24.94;42.79;96948.41;5069700;28;20186;-65
2022/08/24 08:54:31;;;;;;;419.63;397.85;;;;;;;25.35;42.15;96945.25;5071627;28;20223;-65
2022/08/24 08:57:14;;;;;;;450.55;427.55;;;;;;;25.52;42.41;96947.88;5052536;28;20189;-65
2022/08/24 09:00:08;;;;;;;355.85;337.65;;;;;;;25.63;42.00;96938.41;5060661;28;20193;-65
2022/08/24 09:02:51;;;;;;;443.98;421.52;;;;;;;25.77;42.44;96942.81;5053499;28;20181;-65
2022/08/24 09:05:50;;;;;;;255.23;242.05;;;;;;;25.75;41.53;96937.75;5065533;28;20177;-65
2022/08/24 09:08:34;;;;;;;462.23;437.42;;;;;;;25.71;41.50;96936.84;5066965;28;20312;-66
2022/08/24 09:11:23;;;;;;;313.88;297.23;;;;;;;24.43;42.80;96949.06;5070934;28;20293;-65
2022/08/24 09:13:54;;;;;;;460.75;436.70;;;;;;;25.09;42.41;96942.56;5070596;28;20568;-65
2022/08/24 09:16:38;;;;;;;282.65;267.33;;;;;;;24.39;42.68;96938.19;5070400;28;20587;-65
2022/08/24 09:19:27;;;;;;;351.00;333.02;;;;;;;24.95;42.51;96939.25;5058195;28;20232;-65
2022/08/24 09:22:07;;;;;;;549.83;519.45;;;;;;;24.91;42.71;96937.53;5051707;28;20182;-65
2022/08/24 09:24:51;;;;;;;572.35;540.30;;;;;;;24.77;42.42;96938.41;5051945;28;20646;-65
2022/08/24 09:27:39;;;;;;;593.85;559.83;;;;;;;24.71;43.13;96942.34;5051582;28;21267;-65
2022/08/24 09:30:13;;;;;;;476.75;450.92;;;;;;;24.96;42.06;96943.53;5053858;28;20673;-65
2022/08/24 09:33:00;;;;;;;305.98;290.05;;;;;;;25.06;41.72;96942.41;5051537;28;20181;-65
2022/08/24 09:35:39;;;;;;;335.70;318.23;;;;;;;24.87;42.35;96931.94;5051781;28;20260;-65
2022/08/24 09:38:39;;;;;;;329.35;311.92;;;;;;;24.97;42.26;96936.25;5051759;28;20220;-65
2022/08/24 09:41:39;;;;;;;594.60;561.50;;;;;;;24.42;44.00;96929.50;5051556;28;20178;-65
2022/08/24 09:44:28;;;;;;;553.22;522.95;;;;;;;24.64;43.38;96928.63;5054645;28;20198;-65
2022/08/24 09:47:11;;;;;;;473.15;447.15;;;;;;;24.97;42.36;96938.91;5045251;28;20178;-65
2022/08/24 09:50:07;;;;;;;526.92;497.52;;;;;;;24.94;43.04;96934.19;5055165;28;20196;-66
2022/08/24 09:53:18;;;;;;;362.17;342.65;;;;;;;25.20;41.71;96937.66;5049242;28;20190;-65
2022/08/24 09:55:56;;;;;;;554.92;524.10;;;;;;;25.17;42.31;96932.94;5012068;28;20198;-65
2022/08/24 09:58:31;;;;;;;564.92;533.72;;;;;;;25.32;42.06;96932.44;5055124;28;20174;-65
2022/08/24 10:01:13;;;;;;;338.38;320.60;;;;;;;25.35;41.91;96931.03;5055491;28;20670;-67
2022/08/24 10:03:42;;;;;;;213.05;202.10;;;;;;;25.26;41.16;96929.13;5054880;28;20201;-65
2022/08/24 10:06:30;;;;;;;247.88;234.80;;;;;;;25.26;41.32;96929.13;5054469;28;20226;-65
2022/08/24 10:09:09;;;;;;;182.07;172.77;;;;;;;25.21;41.59;96928.50;5054866;28;20194;-65
2022/08/24 10:11:53;;;;;;;256.25;243.13;;;;;;;25.02;41.18;96926.13;5053276;28;20194;-65
2022/08/24 10:14:33;;;;;;;259.48;245.65;;;;;;;25.36;41.56;96927.22;5054876;28;20232;-65
2022/08/24 10:17:13;;;;;;;253.63;240.18;;;;;;;25.40;41.70;96920.13;5049279;28;20200;-65
2022/08/24 10:20:00;;;;;;;400.98;378.98;;;;;;;25.52;40.08;96928.34;5066619;28;20221;-64
2022/08/24 10:22:44;;;;;;;261.90;248.30;;;;;;;25.59;40.49;96916.00;5063057;28;20170;-65
2022/08/24 10:25:43;;;;;;;183.57;174.00;;;;;;;25.80;40.54;96920.72;5055041;28;20265;-64
2022/08/24 10:28:17;;;;;;;248.75;235.68;;;;;;;25.91;40.01;96917.34;5055674;28;20592;-65
2022/08/24 10:31:02;;;;;;;146.18;138.48;;;;;;;25.97;40.86;96909.91;5062608;28;20200;-64
2022/08/24 10:33:30;;;;;;;376.83;356.42;;;;;;;25.43;40.86;96919.47;5066213;28;20206;-64
2022/08/24 10:36:04;;;;;;;253.15;239.70;;;;;;;25.50;41.41;96915.22;5072995;28;20181;-64
2022/08/24 10:41:51;;;;;;;259.92;246.20;;;;;;;25.35;41.24;96906.88;5062082;28;20257;-64
2022/08/24 10:44:27;;;;;;;311.80;295.27;;;;;;;25.85;40.35;96910.56;5063134;28;20185;-64
2022/08/24 10:47:25;;;;;;;607.78;572.13;;;;;;;25.81;40.32;96903.47;5056176;28;20177;-67
2022/08/24 10:50:25;;;;;;;673.88;633.30;;;;;;;25.59;40.36;96894.53;5054423;28;20233;-64
2022/08/24 10:53:12;;;;;;;585.28;550.85;;;;;;;25.76;40.54;96898.25;5065587;28;20200;-63
2022/08/24 10:55:38;;;;;;;521.88;491.50;;;;;;;25.84;40.57;96903.63;5071286;28;20684;-63
2022/08/24 10:58:27;;;;;;;369.67;348.95;;;;;;;25.94;40.94;96900.56;5059793;28;20186;-63
2022/08/24 11:00:53;;;;;;;555.72;523.45;;;;;;;25.93;39.73;96896.31;5054601;28;20177;-63
2022/08/24 11:03:22;;;;;;;562.92;529.80;;;;;;;25.83;40.30;96893.97;5054512;28;20268;-63
2022/08/24 11:05:54;;;;;;;598.85;563.33;;;;;;;25.71;39.98;96895.75;5055455;28;20687;-63
2022/08/24 11:08:28;;;;;;;580.33;546.45;;;;;;;25.93;39.79;96903.56;5055205;28;20541;-63
2022/08/24 11:11:10;;;;;;;582.78;548.63;;;;;;;26.05;39.77;96896.41;5065840;28;20548;-62
2022/08/24 11:13:48;;;;;;;552.63;520.42;;;;;;;25.87;39.29;96902.19;5073854;28;20676;-63
2022/08/24 11:16:23;;;;;;;464.60;438.90;;;;;;;25.96;39.52;96914.50;5060778;28;20208;-63
2022/08/24 11:18:52;;;;;;;542.85;511.33;;;;;;;26.08;39.37;96895.75;5062199;28;20270;-63
2022/08/24 11:21:34;;;;;;;570.72;537.67;;;;;;;26.23;39.14;96897.16;5072719;28;20310;-63
2022/08/24 11:24:03;;;;;;;644.20;604.40;;;;;;;26.42;37.98;96902.09;5070397;28;20184;-63
2022/08/24 11:26:29;;;;;;;677.10;633.30;;;;;;;26.33;38.04;96883.34;5035376;28;20553;-64
2022/08/24 11:28:59;;;;;;;670.28;627.83;;;;;;;26.70;36.36;96880.88;5067887;28;20185;-63
2022/08/24 11:31:38;;;;;;;370.30;348.48;;;;;;;26.63;36.03;96884.09;5073488;28;20189;-64